RYR325 LGAV-LCPH
Flight info
| Callsign | RYR325 |
|---|---|
| Flight time | N/A |
| Altitude | 35000 |
| Route | KEA UL52 ASTIS UM601 EVENO M601 DASNI M32 TOBAL |
| Aircraft | B38M/M-SDE1FGHILORVWXY/HB1 |
Departure
| Time | 2026-05-04 18:16 |
|---|---|
| Airport | Athens Eleftherios Venizelos International Airport (LGAV) |
Arrival
| Time | N/A |
|---|---|
| Airport | Paphos International Airport (LCPH) |
| Time | Latitude | Longitude | Altitude | Speed | Heading |
|---|---|---|---|---|---|
| 2026-05-04 17:49 | 37.93021 | 23.94328 | 288 ft | 0 kts | 37° |
| 2026-05-04 18:06 | 37.93013 | 23.94320 | 288 ft | 2 kts | 37° |
| 2026-05-04 18:07 | 37.93001 | 23.94309 | 288 ft | 2 kts | 37° |
| 2026-05-04 18:07 | 37.92989 | 23.94297 | 288 ft | 2 kts | 37° |
| 2026-05-04 18:07 | 37.92977 | 23.94286 | 288 ft | 2 kts | 37° |
| 2026-05-04 18:07 | 37.92965 | 23.94274 | 288 ft | 2 kts | 37° |
| 2026-05-04 18:08 | 37.92956 | 23.94259 | 288 ft | 2 kts | 74° |
| 2026-05-04 18:08 | 37.92955 | 23.94239 | 288 ft | 2 kts | 104° |
| 2026-05-04 18:08 | 37.92961 | 23.94223 | 288 ft | 2 kts | 133° |
| 2026-05-04 18:08 | 37.92971 | 23.94208 | 288 ft | 2 kts | 125° |
| 2026-05-04 18:09 | 37.92984 | 23.94186 | 288 ft | 0 kts | 128° |
| 2026-05-04 18:11 | 37.92984 | 23.94187 | 288 ft | 0 kts | 128° |
| 2026-05-04 18:12 | 37.92983 | 23.94187 | 288 ft | 0 kts | 128° |
| 2026-05-04 18:12 | 37.92972 | 23.94205 | 288 ft | 5 kts | 127° |
| 2026-05-04 18:12 | 37.92929 | 23.94276 | 288 ft | 11 kts | 127° |
| 2026-05-04 18:12 | 37.92889 | 23.94343 | 288 ft | 8 kts | 127° |
| 2026-05-04 18:13 | 37.92851 | 23.94409 | 288 ft | 12 kts | 126° |
| 2026-05-04 18:13 | 37.92781 | 23.94451 | 288 ft | 10 kts | 204° |
| 2026-05-04 18:13 | 37.92676 | 23.94357 | 288 ft | 11 kts | 217° |
| 2026-05-04 18:14 | 37.92605 | 23.94291 | 288 ft | 11 kts | 209° |
| 2026-05-04 18:14 | 37.92547 | 23.94309 | 288 ft | 7 kts | 131° |
| 2026-05-04 18:14 | 37.92521 | 23.94350 | 288 ft | 4 kts | 126° |
| 2026-05-04 18:15 | 37.92485 | 23.94439 | 288 ft | 6 kts | 72° |
| 2026-05-04 18:15 | 37.92799 | 23.94748 | 288 ft | 79 kts | 37° |
| 2026-05-04 18:15 | 37.93370 | 23.95290 | 288 ft | 123 kts | 37° |
| 2026-05-04 18:16 | 37.94150 | 23.96031 | 290 ft | 157 kts | 38° |
| 2026-05-04 18:16 | 37.95072 | 23.96922 | 478 ft | 165 kts | 37° |
| 2026-05-04 18:16 | 37.95951 | 23.97751 | 964 ft | 156 kts | 36° |
| 2026-05-04 18:17 | 37.97764 | 23.99466 | 1615 ft | 163 kts | 36° |
| 2026-05-04 18:17 | 37.98644 | 24.00315 | 1976 ft | 158 kts | 35° |
| 2026-05-04 18:17 | 38.00426 | 24.02175 | 2173 ft | 171 kts | 52° |
| 2026-05-04 18:18 | 38.00874 | 24.03661 | 2178 ft | 192 kts | 84° |
| 2026-05-04 18:18 | 38.00594 | 24.05387 | 2184 ft | 215 kts | 117° |
| 2026-05-04 18:18 | 37.99516 | 24.06805 | 2161 ft | 236 kts | 147° |
| 2026-05-04 18:18 | 37.98059 | 24.07870 | 2315 ft | 246 kts | 144° |
| 2026-05-04 18:19 | 37.95515 | 24.10777 | 2927 ft | 250 kts | 133° |
| 2026-05-04 18:19 | 37.94274 | 24.12334 | 3237 ft | 252 kts | 133° |
| 2026-05-04 18:19 | 37.92993 | 24.13952 | 3333 ft | 264 kts | 132° |
| 2026-05-04 18:20 | 37.91679 | 24.15620 | 3522 ft | 270 kts | 132° |
| 2026-05-04 18:20 | 37.90332 | 24.17324 | 3751 ft | 274 kts | 132° |
| 2026-05-04 18:20 | 37.88971 | 24.19049 | 4027 ft | 276 kts | 131° |
| 2026-05-04 18:20 | 37.87625 | 24.20761 | 4295 ft | 278 kts | 131° |
| 2026-05-04 18:21 | 37.86244 | 24.22511 | 4550 ft | 280 kts | 131° |
| 2026-05-04 18:21 | 37.84861 | 24.24264 | 4806 ft | 281 kts | 131° |
| 2026-05-04 18:21 | 37.83466 | 24.26037 | 5042 ft | 284 kts | 131° |
| 2026-05-04 18:21 | 37.82068 | 24.27816 | 5277 ft | 284 kts | 131° |
| 2026-05-04 18:22 | 37.80658 | 24.29597 | 5482 ft | 286 kts | 131° |
| 2026-05-04 18:22 | 37.79263 | 24.31358 | 5731 ft | 286 kts | 131° |
| 2026-05-04 18:22 | 37.77834 | 24.33161 | 6088 ft | 287 kts | 131° |
| 2026-05-04 18:22 | 37.76419 | 24.34951 | 6438 ft | 288 kts | 130° |
| 2026-05-04 18:23 | 37.74994 | 24.36751 | 6786 ft | 289 kts | 130° |
| 2026-05-04 18:23 | 37.73576 | 24.38551 | 7135 ft | 293 kts | 130° |
| 2026-05-04 18:23 | 37.72130 | 24.40379 | 7488 ft | 295 kts | 130° |
| 2026-05-04 18:23 | 37.70674 | 24.42214 | 7839 ft | 297 kts | 130° |
| 2026-05-04 18:24 | 37.69199 | 24.44080 | 8191 ft | 299 kts | 130° |
| 2026-05-04 18:24 | 37.67743 | 24.45920 | 8479 ft | 298 kts | 131° |
| 2026-05-04 18:24 | 37.66264 | 24.47784 | 8858 ft | 301 kts | 131° |
| 2026-05-04 18:24 | 37.64789 | 24.49641 | 9228 ft | 304 kts | 131° |
| 2026-05-04 18:25 | 37.63285 | 24.51532 | 9605 ft | 305 kts | 131° |
| 2026-05-04 18:25 | 37.61773 | 24.53428 | 9974 ft | 308 kts | 131° |
| 2026-05-04 18:25 | 37.60251 | 24.55338 | 10348 ft | 309 kts | 131° |
| 2026-05-04 18:25 | 37.58740 | 24.57232 | 10713 ft | 310 kts | 131° |
| 2026-05-04 18:26 | 37.57194 | 24.59167 | 11091 ft | 311 kts | 131° |
| 2026-05-04 18:26 | 37.55660 | 24.61084 | 11469 ft | 312 kts | 131° |
| 2026-05-04 18:26 | 37.54121 | 24.63015 | 11844 ft | 313 kts | 131° |
| 2026-05-04 18:26 | 37.52582 | 24.64943 | 12215 ft | 315 kts | 131° |
| 2026-05-04 18:27 | 37.51011 | 24.66912 | 12591 ft | 316 kts | 131° |
| 2026-05-04 18:27 | 37.49458 | 24.68853 | 12963 ft | 317 kts | 131° |
| 2026-05-04 18:27 | 37.47892 | 24.70810 | 13331 ft | 318 kts | 131° |
| 2026-05-04 18:27 | 37.46326 | 24.72772 | 13697 ft | 319 kts | 131° |
| 2026-05-04 18:28 | 37.44762 | 24.74731 | 14071 ft | 321 kts | 131° |
| 2026-05-04 18:28 | 37.43154 | 24.76731 | 14452 ft | 323 kts | 131° |
| 2026-05-04 18:28 | 37.41562 | 24.78715 | 14825 ft | 326 kts | 131° |
| 2026-05-04 18:28 | 37.39938 | 24.80742 | 15203 ft | 329 kts | 131° |
| 2026-05-04 18:29 | 37.38305 | 24.82772 | 15578 ft | 330 kts | 131° |
| 2026-05-04 18:29 | 37.36665 | 24.84811 | 15953 ft | 333 kts | 131° |
| 2026-05-04 18:29 | 37.35028 | 24.86850 | 16324 ft | 334 kts | 131° |
| 2026-05-04 18:29 | 37.33352 | 24.88930 | 16704 ft | 337 kts | 131° |
| 2026-05-04 18:30 | 37.30003 | 24.93095 | 17458 ft | 341 kts | 131° |
| 2026-05-04 18:30 | 37.28311 | 24.95187 | 17835 ft | 344 kts | 131° |
| 2026-05-04 18:30 | 37.26621 | 24.97281 | 18210 ft | 344 kts | 131° |
| 2026-05-04 18:31 | 37.24892 | 24.99423 | 18590 ft | 346 kts | 131° |
| 2026-05-04 18:31 | 37.23183 | 25.01544 | 18961 ft | 348 kts | 131° |
| 2026-05-04 18:31 | 37.21452 | 25.03689 | 19337 ft | 350 kts | 131° |
| 2026-05-04 18:31 | 37.19710 | 25.05841 | 19713 ft | 353 kts | 132° |
| 2026-05-04 18:32 | 37.17968 | 25.07991 | 20082 ft | 354 kts | 132° |
| 2026-05-04 18:32 | 37.16219 | 25.10147 | 20455 ft | 357 kts | 132° |
| 2026-05-04 18:32 | 37.14431 | 25.12351 | 20833 ft | 358 kts | 132° |
| 2026-05-04 18:32 | 37.12719 | 25.14603 | 21202 ft | 358 kts | 123° |
| 2026-05-04 18:33 | 37.11368 | 25.17195 | 21580 ft | 356 kts | 116° |
| 2026-05-04 18:33 | 37.10118 | 25.19861 | 21951 ft | 358 kts | 117° |
| 2026-05-04 18:33 | 37.08801 | 25.22518 | 22330 ft | 360 kts | 118° |
| 2026-05-04 18:33 | 37.07465 | 25.25166 | 22705 ft | 361 kts | 118° |
| 2026-05-04 18:34 | 37.06119 | 25.27819 | 23054 ft | 362 kts | 118° |
| 2026-05-04 18:34 | 37.04767 | 25.30475 | 23122 ft | 367 kts | 118° |
| 2026-05-04 18:34 | 37.03386 | 25.33178 | 23115 ft | 364 kts | 118° |
| 2026-05-04 18:34 | 37.02031 | 25.35818 | 23122 ft | 364 kts | 118° |
| 2026-05-04 18:35 | 37.00658 | 25.38502 | 23123 ft | 366 kts | 118° |
| 2026-05-04 18:35 | 36.99294 | 25.41167 | 23123 ft | 364 kts | 118° |
| 2026-05-04 18:35 | 36.97921 | 25.43835 | 23119 ft | 365 kts | 118° |
| 2026-05-04 18:35 | 36.96548 | 25.46493 | 23116 ft | 365 kts | 118° |
| 2026-05-04 18:36 | 36.95179 | 25.49153 | 23121 ft | 365 kts | 118° |
| 2026-05-04 18:36 | 36.93796 | 25.51838 | 23118 ft | 364 kts | 118° |
| 2026-05-04 18:36 | 36.92430 | 25.54476 | 23117 ft | 366 kts | 118° |
| 2026-05-04 18:36 | 36.91042 | 25.57148 | 23115 ft | 365 kts | 118° |
| 2026-05-04 18:37 | 36.89664 | 25.59813 | 23118 ft | 364 kts | 118° |
| 2026-05-04 18:37 | 36.88264 | 25.62525 | 23120 ft | 365 kts | 118° |
| 2026-05-04 18:37 | 36.86858 | 25.65240 | 23116 ft | 366 kts | 118° |
| 2026-05-04 18:37 | 36.85487 | 25.67884 | 23113 ft | 365 kts | 118° |
| 2026-05-04 18:38 | 36.84105 | 25.70548 | 23121 ft | 367 kts | 118° |
| 2026-05-04 18:38 | 36.82719 | 25.73217 | 23116 ft | 365 kts | 118° |
| 2026-05-04 18:38 | 36.81326 | 25.75901 | 23114 ft | 366 kts | 118° |
| 2026-05-04 18:38 | 36.79944 | 25.78556 | 23119 ft | 365 kts | 119° |
| 2026-05-04 18:39 | 36.78562 | 25.81205 | 23119 ft | 365 kts | 118° |
| 2026-05-04 18:39 | 36.77177 | 25.83859 | 23118 ft | 366 kts | 118° |
| 2026-05-04 18:39 | 36.75804 | 25.86501 | 23114 ft | 366 kts | 118° |
| 2026-05-04 18:39 | 36.74419 | 25.89158 | 23115 ft | 366 kts | 118° |
| 2026-05-04 18:40 | 36.73026 | 25.91820 | 23116 ft | 366 kts | 119° |
| 2026-05-04 18:40 | 36.71631 | 25.94489 | 23113 ft | 366 kts | 118° |
| 2026-05-04 18:40 | 36.70249 | 25.97125 | 23115 ft | 366 kts | 118° |
| 2026-05-04 18:40 | 36.68843 | 25.99807 | 23112 ft | 367 kts | 118° |
| 2026-05-04 18:41 | 36.67460 | 26.02451 | 23113 ft | 366 kts | 118° |
| 2026-05-04 18:41 | 36.66073 | 26.05103 | 23113 ft | 366 kts | 118° |
| 2026-05-04 18:41 | 36.64681 | 26.07753 | 23109 ft | 366 kts | 118° |
| 2026-05-04 18:41 | 36.63274 | 26.10432 | 23167 ft | 374 kts | 118° |